Time;durP1;ratioP1;P1;durP2;ratioP2;P2;SDS_P1;SDS_P2;PMS_P1;PMS_P2;Temp;Humidity;BMP_temperature;BMP_pressure;BME280_temperature;BME280_humidity;BME280_pressure;Samples;Min_cycle;Max_cycle;Signal;HPM_P1;HPM_P2
2022/10/14 00:03:40;;;;;;;3.60;2.78;;;;;;;10.56;67.90;100962.78;18237902;32;20093;-57
2022/10/14 00:13:45;;;;;;;0.90;0.90;;;;;;;10.52;68.34;100953.16;18237984;32;20758;-56
2022/10/14 00:23:48;;;;;;;0.93;0.93;;;;;;;10.58;68.66;100955.81;18236478;32;20090;-56
2022/10/14 00:33:52;;;;;;;0.95;0.88;;;;;;;10.56;67.77;100949.72;18244685;32;20124;-57
2022/10/14 00:43:59;;;;;;;2.40;1.50;;;;;;;10.51;67.77;100948.78;18244677;32;20114;-56
2022/10/14 00:54:04;;;;;;;3.97;1.85;;;;;;;10.26;68.95;100944.25;18244360;32;20090;-57
2022/10/14 01:04:07;;;;;;;0.70;0.70;;;;;;;10.44;67.74;100942.66;18244216;32;20093;-56
2022/10/14 01:14:23;;;;;;;1.20;1.20;;;;;;;10.18;68.33;100939.84;18244011;32;20112;-56
2022/10/14 01:24:42;;;;;;;0.55;0.55;;;;;;;10.28;67.46;100926.84;18243610;32;20098;-56
2022/10/14 01:34:53;;;;;;;1.10;1.00;;;;;;;10.24;66.81;100929.44;18243421;32;20450;-56
2022/10/14 01:45:00;;;;;;;0.75;0.75;;;;;;;10.00;68.04;100925.78;18243058;32;20112;-56
2022/10/14 01:55:09;;;;;;;0.40;0.40;;;;;;;10.09;67.38;100918.03;18242985;32;20110;-56
2022/10/14 02:05:17;;;;;;;1.95;1.85;;;;;;;10.01;67.37;100919.69;18242602;32;20090;-56
2022/10/14 02:15:29;;;;;;;0.65;0.65;;;;;;;9.92;67.64;100915.28;18242495;32;20089;-57
2022/10/14 02:25:33;;;;;;;;;;;;;;;10.05;67.46;100911.03;18243020;32;20094;-56
2022/10/14 02:35:38;;;;;;;0.60;0.60;;;;;;;10.21;67.03;100901.59;18241886;32;19981;-56
2022/10/14 02:45:43;;;;;;;1.37;1.25;;;;;;;10.18;67.30;100903.31;18241024;32;20379;-56
2022/10/14 02:55:47;;;;;;;1.83;1.73;;;;;;;10.09;67.43;100907.59;18240237;32;20113;-56
2022/10/14 03:05:50;;;;;;;1.35;1.25;;;;;;;9.94;68.12;100913.56;18240671;32;20102;-57
2022/10/14 03:15:55;;;;;;;0.60;0.60;;;;;;;10.12;66.83;100910.22;18240013;32;20153;-60
2022/10/14 03:25:58;;;;;;;1.37;1.27;;;;;;;9.99;67.71;100913.59;18239212;32;20110;-57
2022/10/14 03:36:03;;;;;;;0.98;0.60;;;;;;;10.21;66.85;100899.00;18243675;32;20443;-56
2022/10/14 03:46:06;;;;;;;1.85;1.58;;;;;;;10.03;67.09;100897.09;18249054;32;20109;-57
2022/10/14 03:56:10;;;;;;;0.40;0.40;;;;;;;9.91;67.18;100897.91;18237954;32;20133;-57
2022/10/14 04:06:14;;;;;;;2.67;0.55;;;;;;;9.72;68.12;100902.06;18243260;32;20124;-56
2022/10/14 04:16:19;;;;;;;0.95;0.90;;;;;;;9.85;67.74;100897.81;18245528;32;20438;-56
2022/10/14 04:26:22;;;;;;;0.82;0.82;;;;;;;9.98;66.92;100877.94;18244974;32;20097;-56
2022/10/14 04:36:26;;;;;;;0.70;0.70;;;;;;;9.36;68.90;100878.25;18196203;32;20137;-56
2022/10/14 04:46:30;;;;;;;0.50;0.50;;;;;;;9.66;67.37;100876.81;18244367;32;20411;-56
2022/10/14 04:56:34;;;;;;;1.37;1.30;;;;;;;9.82;67.03;100883.03;18244448;32;20116;-56
2022/10/14 05:06:38;;;;;;;0.60;0.60;;;;;;;9.63;67.73;100878.50;18299383;32;20393;-56
2022/10/14 05:16:42;;;;;;;5.28;3.33;;;;;;;9.60;67.38;100881.09;18306929;32;20094;-56
2022/10/14 05:26:45;;;;;;;3.87;1.73;;;;;;;9.73;66.88;100882.94;18307632;32;20102;-56
2022/10/14 05:36:50;;;;;;;0.52;0.52;;;;;;;9.54;67.04;100880.16;18306373;32;20093;-56
2022/10/14 05:46:53;;;;;;;0.40;0.40;;;;;;;9.77;67.41;100884.72;18304873;32;20449;-56
2022/10/14 05:56:58;;;;;;;2.40;1.20;;;;;;;9.99;66.92;100903.16;18302764;32;20135;-56
2022/10/14 06:07:02;;;;;;;0.57;0.57;;;;;;;10.21;67.31;100908.53;18305352;32;20094;-56
2022/10/14 06:17:06;;;;;;;0.43;0.43;;;;;;;10.41;67.82;100909.59;18298510;32;20105;-57
2022/10/14 06:27:09;;;;;;;0.93;0.90;;;;;;;10.61;68.03;100911.44;18284127;32;20101;-56
2022/10/14 06:37:14;;;;;;;0.45;0.45;;;;;;;10.89;68.66;100926.41;18304546;32;20098;-56
2022/10/14 06:47:17;;;;;;;0.77;0.77;;;;;;;11.66;69.09;100921.41;18304385;32;20090;-56
2022/10/14 06:57:22;;;;;;;1.60;0.98;;;;;;;12.39;70.54;100930.19;18298875;32;20465;-56
2022/10/14 07:07:25;;;;;;;0.45;0.45;;;;;;;13.68;67.76;100925.34;18302633;32;20163;-56
2022/10/14 07:17:30;;;;;;;0.45;0.45;;;;;;;14.45;65.92;100916.84;18302923;32;20665;-57
2022/10/14 07:27:34;;;;;;;0.57;0.57;;;;;;;13.89;67.81;100920.84;18302047;32;20109;-56
2022/10/14 07:37:40;;;;;;;0.45;0.45;;;;;;;14.37;66.91;100927.44;18302204;32;20121;-56
2022/10/14 07:47:44;;;;;;;1.73;1.62;;;;;;;14.91;66.91;100920.78;18307896;32;20089;-57
2022/10/14 07:57:48;;;;;;;0.45;0.45;;;;;;;15.21;66.45;100913.38;18309047;32;20112;-56
2022/10/14 08:07:51;;;;;;;0.40;0.40;;;;;;;15.85;65.67;100894.91;18308974;32;20102;-57
2022/10/14 08:17:56;;;;;;;0.30;0.30;;;;;;;16.18;63.14;100887.34;18308379;32;20378;-57
2022/10/14 08:27:59;;;;;;;0.45;0.45;;;;;;;16.98;60.50;100881.44;18307966;32;20373;-57
2022/10/14 08:38:04;;;;;;;1.00;0.30;;;;;;;17.38;59.05;100868.28;18308087;32;20130;-57
2022/10/14 08:48:11;;;;;;;1.85;0.90;;;;;;;17.51;58.77;100874.16;18307308;32;20163;-57
2022/10/14 08:58:19;;;;;;;0.57;0.40;;;;;;;17.98;57.14;100872.09;18308664;32;20116;-57
2022/10/14 09:08:27;;;;;;;0.62;0.40;;;;;;;18.80;54.56;100868.19;18308061;32;20481;-57
2022/10/14 09:18:37;;;;;;;0.25;0.25;;;;;;;19.44;53.01;100861.84;18307810;32;20441;-57
2022/10/14 09:28:44;;;;;;;0.20;0.20;;;;;;;18.99;52.87;100860.53;18306421;32;20113;-57
2022/10/14 09:38:51;;;;;;;1.10;0.50;;;;;;;19.99;50.90;100858.31;18306378;32;20085;-57
2022/10/14 09:48:55;;;;;;;0.13;0.13;;;;;;;19.96;50.42;100858.44;18306085;32;20116;-57
2022/10/14 09:59:00;;;;;;;3.85;0.98;;;;;;;19.67;50.49;100849.66;18304137;32;20090;-57
2022/10/14 10:09:03;;;;;;;0.20;0.20;;;;;;;19.30;51.28;100848.19;18305134;32;20470;-57
2022/10/14 10:19:21;;;;;;;0.80;0.47;;;;;;;19.04;53.52;100852.50;18305151;32;20097;-57
2022/10/14 10:29:27;;;;;;;0.17;0.15;;;;;;;20.24;51.01;100842.41;18305857;32;20104;-57
2022/10/14 10:39:37;;;;;;;0.60;0.60;;;;;;;20.66;48.73;100832.94;18305079;32;20101;-57
2022/10/14 10:49:53;;;;;;;1.03;0.60;;;;;;;20.80;48.91;100821.81;18304623;32;20140;-57
2022/10/14 11:00:07;;;;;;;0.53;0.40;;;;;;;20.97;47.12;100800.91;18303568;32;20094;-57
2022/10/14 11:20:46;;;;;;;1.27;0.37;;;;;;;21.86;46.01;100785.75;18298073;32;157458;-57
2022/10/14 11:30:54;;;;;;;0.35;0.35;;;;;;;22.21;45.11;100776.25;18292022;32;20332;-57
2022/10/14 11:41:01;;;;;;;0.13;0.13;;;;;;;21.75;44.39;100764.94;18239576;32;20077;-57
2022/10/14 11:51:12;;;;;;;0.10;0.10;;;;;;;22.06;43.89;100757.44;18238010;32;20153;-57
2022/10/14 12:01:16;;;;;;;;;;;;;;;22.18;42.53;100746.22;18290856;32;20112;-57
2022/10/14 12:11:27;;;;;;;2.42;0.65;;;;;;;21.38;44.48;100742.59;18298809;32;20254;-57
2022/10/14 12:21:35;;;;;;;0.00;0.00;;;;;;;21.20;44.66;100731.81;18297933;32;20743;-57
2022/10/14 12:31:39;;;;;;;0.10;0.10;;;;;;;21.07;45.73;100728.78;18267642;32;20117;-57
2022/10/14 12:41:50;;;;;;;0.10;0.10;;;;;;;21.57;43.75;100708.13;18243204;32;20109;-57
2022/10/14 12:51:54;;;;;;;0.08;0.08;;;;;;;21.61;44.84;100706.19;18244680;32;20104;-57
2022/10/14 13:02:03;;;;;;;1.95;0.68;;;;;;;22.27;41.45;100696.22;18313026;32;20185;-57
2022/10/14 13:12:42;;;;;;;0.57;0.30;;;;;;;21.78;42.57;100696.66;18306497;32;20104;-57
2022/10/14 13:22:48;;;;;;;0.00;0.00;;;;;;;21.68;43.45;100690.91;18305716;32;20111;-57
2022/10/14 13:32:55;;;;;;;0.10;0.10;;;;;;;22.53;41.68;100691.50;18244073;32;20093;-57
2022/10/14 13:43:00;;;;;;;0.10;0.10;;;;;;;22.44;42.05;100680.34;18243253;32;20135;-57
2022/10/14 13:53:05;;;;;;;0.30;0.20;;;;;;;22.41;42.26;100682.28;18244870;32;20113;-57
2022/10/14 14:03:21;;;;;;;0.10;0.10;;;;;;;22.24;44.69;100669.75;18304577;32;20137;-58
2022/10/14 14:13:25;;;;;;;0.35;0.25;;;;;;;22.28;43.02;100672.19;18303789;32;20446;-57
2022/10/14 14:23:30;;;;;;;0.60;0.25;;;;;;;22.31;43.24;100656.12;18304591;32;20140;-58
2022/10/14 14:33:34;;;;;;;0.10;0.10;;;;;;;22.37;42.81;100652.31;18306133;32;20112;-57
2022/10/14 14:43:44;;;;;;;0.10;0.10;;;;;;;22.20;44.31;100661.09;18303913;32;20468;-57
2022/10/14 14:54:05;;;;;;;0.13;0.13;;;;;;;21.95;45.24;100669.31;18304446;32;20097;-57
2022/10/14 15:04:15;;;;;;;0.80;0.20;;;;;;;21.73;46.47;100657.00;18303872;32;20447;-57
2022/10/14 15:14:29;;;;;;;0.10;0.10;;;;;;;21.46;47.83;100650.19;18303338;32;20094;-57
2022/10/14 15:24:34;;;;;;;0.17;0.17;;;;;;;21.05;50.09;100653.69;18302188;32;20093;-57
2022/10/14 15:34:37;;;;;;;0.80;0.40;;;;;;;20.60;52.56;100652.84;18302139;32;20115;-57
2022/10/14 15:44:41;;;;;;;0.10;0.10;;;;;;;20.18;54.14;100654.47;18301615;32;20386;-57
2022/10/14 15:54:45;;;;;;;0.65;0.65;;;;;;;19.78;55.31;100662.09;18301250;32;20106;-57
2022/10/14 16:04:50;;;;;;;0.30;0.30;;;;;;;19.37;56.58;100673.22;18308453;32;20453;-57
2022/10/14 16:15:32;;;;;;;0.47;0.47;;;;;;;18.96;57.72;100678.97;18309603;32;20120;-57
2022/10/14 16:25:38;;;;;;;;;;;;;;;18.65;58.72;100687.06;18297981;32;20140;-58
2022/10/14 16:35:42;;;;;;;0.35;0.35;;;;;;;18.25;59.63;100692.62;18260533;32;19990;-57
2022/10/14 16:45:47;;;;;;;1.30;1.20;;;;;;;17.80;60.43;100701.78;18245061;32;20436;-57
2022/10/14 16:55:50;;;;;;;0.10;0.10;;;;;;;17.45;60.65;100715.03;18263579;32;20548;-57
2022/10/14 17:05:58;;;;;;;0.30;0.30;;;;;;;17.02;61.63;100706.44;18307339;32;20112;-57
2022/10/14 17:16:02;;;;;;;0.65;0.65;;;;;;;16.51;63.43;100712.84;18307289;32;20188;-57
2022/10/14 17:26:06;;;;;;;1.10;0.80;;;;;;;16.40;63.14;100706.94;18306517;32;20442;-57
2022/10/14 17:36:16;;;;;;;0.57;0.50;;;;;;;16.20;63.18;100709.06;18305345;32;20104;-57
2022/10/14 17:46:23;;;;;;;0.40;0.40;;;;;;;15.88;63.44;100718.47;18305082;32;20143;-57
2022/10/14 17:56:27;;;;;;;0.57;0.57;;;;;;;15.64;63.89;100728.53;18304391;32;20143;-57
2022/10/14 18:06:32;;;;;;;0.40;0.40;;;;;;;15.45;63.89;100721.87;18304601;32;20167;-57
2022/10/14 18:16:37;;;;;;;1.02;0.88;;;;;;;15.16;63.71;100731.13;18305549;32;20105;-57
2022/10/14 18:26:41;;;;;;;0.28;0.28;;;;;;;14.81;64.97;100731.66;18303725;32;20139;-57
2022/10/14 18:36:46;;;;;;;3.00;1.05;;;;;;;14.68;65.15;100730.91;18305694;32;20141;-57
2022/10/14 18:46:51;;;;;;;0.35;0.35;;;;;;;14.44;65.54;100732.13;18285208;32;20163;-57
2022/10/14 18:56:54;;;;;;;0.90;0.90;;;;;;;14.26;66.17;100734.09;18240126;32;20148;-57
2022/10/14 19:06:59;;;;;;;2.05;1.17;;;;;;;14.21;66.33;100742.91;18240609;32;20181;-57
2022/10/14 19:17:02;;;;;;;0.95;0.52;;;;;;;14.05;65.93;100747.47;18239878;32;20388;-57
2022/10/14 19:27:09;;;;;;;1.23;1.15;;;;;;;13.83;66.61;100758.19;18237890;32;20144;-57
2022/10/14 19:37:12;;;;;;;1.48;0.77;;;;;;;13.72;65.75;100755.69;18237351;32;20093;-57
2022/10/14 19:47:17;;;;;;;1.35;0.93;;;;;;;13.69;65.74;100759.19;18238385;32;20094;-57
2022/10/14 19:57:21;;;;;;;1.02;0.70;;;;;;;13.48;66.15;100764.62;18237922;32;20148;-57
2022/10/14 20:07:28;;;;;;;2.12;1.27;;;;;;;13.35;66.29;100762.06;18244833;32;20085;-57
2022/10/14 20:17:31;;;;;;;0.95;0.73;;;;;;;13.26;65.87;100770.00;18299053;32;20444;-57
2022/10/14 20:27:35;;;;;;;1.25;1.17;;;;;;;13.13;65.63;100771.84;18295585;32;20102;-57
2022/10/14 20:37:38;;;;;;;0.40;0.40;;;;;;;12.98;66.08;100760.59;18277067;32;20451;-57
2022/10/14 20:47:43;;;;;;;0.30;0.30;;;;;;;12.80;66.59;100758.94;18242495;32;20443;-57
2022/10/14 20:57:46;;;;;;;1.48;1.37;;;;;;;12.78;66.35;100758.06;18244849;32;20086;-57
2022/10/14 21:07:52;;;;;;;10.32;1.98;;;;;;;12.65;66.49;100751.19;18245403;32;20098;-57
2022/10/14 21:17:55;;;;;;;1.12;0.50;;;;;;;12.45;66.65;100760.00;18244055;32;20122;-57
2022/10/14 21:28:00;;;;;;;1.27;0.82;;;;;;;12.42;65.97;100760.88;18305405;32;20108;-57
2022/10/14 21:38:03;;;;;;;0.93;0.90;;;;;;;12.37;66.39;100752.16;18283197;32;20112;-57
2022/10/14 21:48:07;;;;;;;2.08;1.95;;;;;;;12.25;66.89;100753.09;18243114;32;20118;-57
2022/10/14 21:58:11;;;;;;;0.85;0.85;;;;;;;12.25;67.08;100747.88;18274174;32;20090;-58
2022/10/14 22:08:21;;;;;;;1.33;0.95;;;;;;;11.94;68.93;100748.78;18302920;32;20093;-57
2022/10/14 22:18:25;;;;;;;1.02;1.02;;;;;;;12.33;67.43;100730.38;18303621;32;20485;-57
2022/10/14 22:28:30;;;;;;;1.08;1.05;;;;;;;12.28;67.50;100734.75;18305315;32;20094;-57
2022/10/14 22:38:34;;;;;;;3.08;1.42;;;;;;;12.23;66.91;100733.88;18305173;32;20110;-57
2022/10/14 22:48:39;;;;;;;0.30;0.30;;;;;;;12.10;67.39;100733.09;18304737;32;20185;-57
2022/10/14 22:58:42;;;;;;;1.20;1.10;;;;;;;12.18;67.24;100748.75;18304390;32;20110;-57
2022/10/14 23:08:47;;;;;;;1.42;1.33;;;;;;;12.09;67.86;100739.16;18303021;32;20683;-57
2022/10/14 23:18:51;;;;;;;0.70;0.70;;;;;;;12.12;67.10;100741.78;18303082;32;20501;-57
2022/10/14 23:28:57;;;;;;;0.68;0.65;;;;;;;11.98;67.24;100746.16;18302087;32;20089;-58
2022/10/14 23:39:00;;;;;;;1.35;1.25;;;;;;;11.82;67.12;100737.47;18300029;32;20102;-57
2022/10/14 23:49:04;;;;;;;0.60;0.60;;;;;;;11.62;66.78;100747.09;18301876;32;20089;-57
2022/10/14 23:59:27;;;;;;;0.45;0.45;;;;;;;11.61;67.31;100752.31;18301379;32;20366;-57
